Aeroporto :
LOGIN :

Iscrizione | Disclaimer

   EN    FR    IT 

 










Sommario :    VFR   VFR Marginale   IFR   IFR Intensivo   IFR Molto Intensivo
Visibilità : 
Base nubi : 
>= 8 km
>= 3000ft
5 / 8 km
1000 / 3000 ft
1500m / 5 km
500 / 1000 ft
800 / 1500m
200 / 500 ft
< 800m
< 200 ft
Simboli :   Temporali  Nebbia  Neve Forte  Precipitazioni Forti  Vento > 20 kt
SIGMETs :   Varie  Temporali  Ghiacco  Turbolenza  Onda orograficha  Ceneri Vulcaniche






- Altitudine del aeroporto : 137 ft


LIPS - Istrana AFB Treviso

ULTIMO METAR :
  • 191655Z /////KT 4000 BR BKN050 18/16 Q1016 RMK BKN VIS MIN 4000 WIND THR26 02004KT WIND THR08 09003KT GRN

METARs OBSOLETI :
  • 191555Z /////KT 4500 BR SCT025 BKN060 18/17 Q1016 RMK BKN VIS MIN 4500 WIND THR26 36004KT WIND THR08 01005KT GRN
  • 191455Z /////KT 6000 BKN070 19/18 Q1016

TAF TAF LIPS
Valido dal 19 a 18 ore il 20 a 03 ore UTC


191700Z 1918/2003 05005KT 3000 BR SCT025 BKN070
TEMPO 1922/2003 1200 BR SCT008
PROB40
TEMPO 2000/2003 0500 FG BKN005



MetMap, La meteo Aeronautica in un colpo d'occhio ! - Copyright ORBIFLY Dicembre 2007 - Disclaimer

ORBIFLY MET'MAP TEAM :

Programmazione e sviluppo : Alexandra Zaïnal
Concezione e sviluppo : Baudouin d'Aumeries
Co-Programmazione e sviluppo : Marc-Olivier Méhu
Supporto tecnico e logistico : Manuel Goepfert
Aiuto per la traduzione : Arnaldo La Scala

Contatto : metmap@orbifly.com




FONTI E CREDITI :

   NOAA